Terminal Aerodrome Forecast
Issued by NWS Sioux Falls, SD

Home | Current Version | Previous Version | Graphics & Text | Print | Product List | Glossary On
Versions: 1 2 3 4 5 6 7 8 9 10 11 12 13 14
630
FTUS43 KFSD 180527
TAFFSD
TAF
KFSD 180527Z 1806/1906 07005KT P6SM -SHRA BKN100
      TEMPO 1806/1807 5SM -TSRA OVC070CB
     FM181100 14006KT P6SM SCT120
     FM181600 21004KT P6SM SCT130
     FM182200 31008KT P6SM SCT250=

USA.gov is the U.S. government's official web portal to all federal, state and local government web resources and services.